sensor_id;sensor_type;location;lat;lon;timestamp;P1;durP1;ratioP1;P2;durP2;ratioP2
73382;SDS011;61600;48.126;11.542;2022-09-13T00:00:03;5.00;;;2.45;;
73382;SDS011;61600;48.126;11.542;2022-09-13T00:02:29;3.95;;;2.30;;
73382;SDS011;61600;48.126;11.542;2022-09-13T00:04:54;3.30;;;2.07;;
73382;SDS011;61600;48.126;11.542;2022-09-13T00:07:21;5.57;;;2.72;;
73382;SDS011;61600;48.126;11.542;2022-09-13T00:09:46;6.27;;;2.67;;
73382;SDS011;61600;48.126;11.542;2022-09-13T00:12:12;3.78;;;1.90;;
73382;SDS011;61600;48.126;11.542;2022-09-13T00:14:37;3.93;;;2.37;;
73382;SDS011;61600;48.126;11.542;2022-09-13T00:17:02;4.35;;;2.10;;
73382;SDS011;61600;48.126;11.542;2022-09-13T00:19:28;4.07;;;2.17;;
73382;SDS011;61600;48.126;11.542;2022-09-13T00:21:53;4.00;;;2.33;;
73382;SDS011;61600;48.126;11.542;2022-09-13T00:24:18;3.93;;;1.80;;
73382;SDS011;61600;48.126;11.542;2022-09-13T00:26:44;3.15;;;1.92;;
73382;SDS011;61600;48.126;11.542;2022-09-13T00:29:10;4.28;;;1.98;;
73382;SDS011;61600;48.126;11.542;2022-09-13T00:31:35;3.83;;;2.30;;
73382;SDS011;61600;48.126;11.542;2022-09-13T00:34:01;4.05;;;1.90;;
73382;SDS011;61600;48.126;11.542;2022-09-13T00:36:27;5.60;;;2.22;;
73382;SDS011;61600;48.126;11.542;2022-09-13T00:38:52;3.15;;;1.92;;
73382;SDS011;61600;48.126;11.542;2022-09-13T00:41:18;4.20;;;1.80;;
73382;SDS011;61600;48.126;11.542;2022-09-13T00:46:10;4.65;;;2.42;;
73382;SDS011;61600;48.126;11.542;2022-09-13T00:48:37;4.28;;;2.50;;
73382;SDS011;61600;48.126;11.542;2022-09-13T00:51:03;3.78;;;1.98;;
73382;SDS011;61600;48.126;11.542;2022-09-13T00:53:31;4.18;;;2.10;;
73382;SDS011;61600;48.126;11.542;2022-09-13T00:56:08;3.72;;;2.08;;
73382;SDS011;61600;48.126;11.542;2022-09-13T00:58:40;3.08;;;1.70;;
73382;SDS011;61600;48.126;11.542;2022-09-13T01:01:08;2.88;;;1.73;;
73382;SDS011;61600;48.126;11.542;2022-09-13T01:03:35;6.47;;;2.33;;
73382;SDS011;61600;48.126;11.542;2022-09-13T01:06:08;3.47;;;2.13;;
73382;SDS011;61600;48.126;11.542;2022-09-13T01:08:36;3.40;;;2.00;;
73382;SDS011;61600;48.126;11.542;2022-09-13T01:11:03;3.65;;;2.00;;
73382;SDS011;61600;48.126;11.542;2022-09-13T01:13:31;4.80;;;1.70;;
73382;SDS011;61600;48.126;11.542;2022-09-13T01:15:57;3.33;;;1.92;;
73382;SDS011;61600;48.126;11.542;2022-09-13T01:18:23;4.40;;;1.90;;
73382;SDS011;61600;48.126;11.542;2022-09-13T01:23:55;7.60;;;3.03;;
73382;SDS011;61600;48.126;11.542;2022-09-13T01:31:53;3.67;;;1.98;;
73382;SDS011;61600;48.126;11.542;2022-09-13T01:36:58;5.82;;;2.03;;
73382;SDS011;61600;48.126;11.542;2022-09-13T01:47:38;4.68;;;2.60;;
73382;SDS011;61600;48.126;11.542;2022-09-13T01:55:05;3.53;;;2.10;;
73382;SDS011;61600;48.126;11.542;2022-09-13T02:00:08;4.82;;;2.35;;
73382;SDS011;61600;48.126;11.542;2022-09-13T02:07:41;5.82;;;2.15;;
73382;SDS011;61600;48.126;11.542;2022-09-13T02:10:24;4.00;;;2.58;;
73382;SDS011;61600;48.126;11.542;2022-09-13T02:12:51;4.10;;;1.83;;
73382;SDS011;61600;48.126;11.542;2022-09-13T02:15:22;3.38;;;2.00;;
73382;SDS011;61600;48.126;11.542;2022-09-13T02:17:49;4.97;;;2.42;;
73382;SDS011;61600;48.126;11.542;2022-09-13T02:20:18;3.47;;;1.70;;
73382;SDS011;61600;48.126;11.542;2022-09-13T02:22:46;4.25;;;2.28;;
73382;SDS011;61600;48.126;11.542;2022-09-13T02:25:14;4.32;;;1.95;;
73382;SDS011;61600;48.126;11.542;2022-09-13T02:27:40;3.60;;;2.53;;
73382;SDS011;61600;48.126;11.542;2022-09-13T02:30:08;6.65;;;2.35;;
73382;SDS011;61600;48.126;11.542;2022-09-13T02:32:41;6.10;;;2.20;;
73382;SDS011;61600;48.126;11.542;2022-09-13T02:35:18;6.05;;;1.90;;
73382;SDS011;61600;48.126;11.542;2022-09-13T02:37:46;4.65;;;1.92;;
73382;SDS011;61600;48.126;11.542;2022-09-13T02:40:17;3.60;;;2.05;;
73382;SDS011;61600;48.126;11.542;2022-09-13T02:42:49;4.47;;;1.90;;
73382;SDS011;61600;48.126;11.542;2022-09-13T02:45:14;6.95;;;2.17;;
73382;SDS011;61600;48.126;11.542;2022-09-13T02:47:49;8.77;;;2.22;;
73382;SDS011;61600;48.126;11.542;2022-09-13T02:53:03;3.15;;;2.10;;
73382;SDS011;61600;48.126;11.542;2022-09-13T02:58:45;4.35;;;1.70;;
73382;SDS011;61600;48.126;11.542;2022-09-13T03:00:51;3.60;;;1.80;;
73382;SDS011;61600;48.126;11.542;2022-09-13T03:03:17;3.47;;;2.28;;
73382;SDS011;61600;48.126;11.542;2022-09-13T03:05:42;5.10;;;2.20;;
73382;SDS011;61600;48.126;11.542;2022-09-13T03:08:09;4.45;;;2.10;;
73382;SDS011;61600;48.126;11.542;2022-09-13T03:11:10;4.03;;;2.08;;
73382;SDS011;61600;48.126;11.542;2022-09-13T03:20:55;3.70;;;2.00;;
73382;SDS011;61600;48.126;11.542;2022-09-13T03:26:05;6.18;;;2.47;;
73382;SDS011;61600;48.126;11.542;2022-09-13T03:36:34;4.47;;;1.90;;
73382;SDS011;61600;48.126;11.542;2022-09-13T03:41:41;3.53;;;1.90;;
73382;SDS011;61600;48.126;11.542;2022-09-13T03:44:09;4.00;;;1.95;;
73382;SDS011;61600;48.126;11.542;2022-09-13T03:46:37;4.03;;;2.20;;
73382;SDS011;61600;48.126;11.542;2022-09-13T03:49:08;6.10;;;2.20;;
73382;SDS011;61600;48.126;11.542;2022-09-13T03:51:36;6.35;;;2.88;;
73382;SDS011;61600;48.126;11.542;2022-09-13T03:54:03;8.50;;;2.08;;
73382;SDS011;61600;48.126;11.542;2022-09-13T03:56:29;10.93;;;3.38;;
73382;SDS011;61600;48.126;11.542;2022-09-13T03:58:54;10.10;;;2.40;;
73382;SDS011;61600;48.126;11.542;2022-09-13T04:01:20;3.45;;;1.85;;
73382;SDS011;61600;48.126;11.542;2022-09-13T04:03:46;7.03;;;2.00;;
73382;SDS011;61600;48.126;11.542;2022-09-13T04:06:12;8.27;;;2.35;;
73382;SDS011;61600;48.126;11.542;2022-09-13T04:08:38;9.25;;;2.42;;
73382;SDS011;61600;48.126;11.542;2022-09-13T04:11:03;3.58;;;2.00;;
73382;SDS011;61600;48.126;11.542;2022-09-13T04:13:29;5.78;;;2.75;;
73382;SDS011;61600;48.126;11.542;2022-09-13T04:15:54;6.35;;;2.00;;
73382;SDS011;61600;48.126;11.542;2022-09-13T04:18:24;7.57;;;1.52;;
73382;SDS011;61600;48.126;11.542;2022-09-13T04:20:53;3.33;;;1.37;;
73382;SDS011;61600;48.126;11.542;2022-09-13T04:23:19;2.33;;;1.40;;
73382;SDS011;61600;48.126;11.542;2022-09-13T04:25:44;1.98;;;1.48;;
73382;SDS011;61600;48.126;11.542;2022-09-13T04:28:10;2.90;;;1.23;;
73382;SDS011;61600;48.126;11.542;2022-09-13T04:30:36;2.58;;;1.20;;
73382;SDS011;61600;48.126;11.542;2022-09-13T04:33:01;3.15;;;0.82;;
73382;SDS011;61600;48.126;11.542;2022-09-13T04:35:26;2.33;;;1.13;;
73382;SDS011;61600;48.126;11.542;2022-09-13T04:37:56;2.40;;;1.40;;
73382;SDS011;61600;48.126;11.542;2022-09-13T04:40:22;2.22;;;1.20;;
73382;SDS011;61600;48.126;11.542;2022-09-13T04:42:48;2.38;;;1.13;;
73382;SDS011;61600;48.126;11.542;2022-09-13T04:45:13;2.37;;;1.23;;
73382;SDS011;61600;48.126;11.542;2022-09-13T04:47:38;2.10;;;1.20;;
73382;SDS011;61600;48.126;11.542;2022-09-13T04:50:04;3.53;;;1.50;;
73382;SDS011;61600;48.126;11.542;2022-09-13T04:52:31;3.65;;;1.27;;
73382;SDS011;61600;48.126;11.542;2022-09-13T04:54:57;5.03;;;1.70;;
73382;SDS011;61600;48.126;11.542;2022-09-13T04:57:28;2.58;;;1.10;;
73382;SDS011;61600;48.126;11.542;2022-09-13T04:59:57;4.57;;;1.38;;
73382;SDS011;61600;48.126;11.542;2022-09-13T05:02:22;5.65;;;1.50;;
73382;SDS011;61600;48.126;11.542;2022-09-13T05:04:48;3.85;;;1.25;;
73382;SDS011;61600;48.126;11.542;2022-09-13T05:07:13;3.67;;;1.83;;
73382;SDS011;61600;48.126;11.542;2022-09-13T05:09:39;2.97;;;1.10;;
73382;SDS011;61600;48.126;11.542;2022-09-13T05:12:05;3.67;;;1.17;;
73382;SDS011;61600;48.126;11.542;2022-09-13T05:14:30;2.35;;;1.50;;
73382;SDS011;61600;48.126;11.542;2022-09-13T05:16:56;2.63;;;1.38;;
73382;SDS011;61600;48.126;11.542;2022-09-13T05:19:21;4.00;;;1.30;;
73382;SDS011;61600;48.126;11.542;2022-09-13T05:21:47;3.95;;;1.23;;
73382;SDS011;61600;48.126;11.542;2022-09-13T05:24:13;3.40;;;1.10;;
73382;SDS011;61600;48.126;11.542;2022-09-13T05:26:38;3.17;;;1.30;;
73382;SDS011;61600;48.126;11.542;2022-09-13T05:29:05;6.10;;;1.40;;
73382;SDS011;61600;48.126;11.542;2022-09-13T05:31:32;2.05;;;1.10;;
73382;SDS011;61600;48.126;11.542;2022-09-13T05:34:02;2.42;;;1.25;;
73382;SDS011;61600;48.126;11.542;2022-09-13T05:36:29;2.88;;;1.10;;
73382;SDS011;61600;48.126;11.542;2022-09-13T05:38:54;3.17;;;1.38;;
73382;SDS011;61600;48.126;11.542;2022-09-13T05:41:23;4.22;;;1.48;;
73382;SDS011;61600;48.126;11.542;2022-09-13T05:43:48;1.77;;;1.15;;
73382;SDS011;61600;48.126;11.542;2022-09-13T05:46:15;5.03;;;1.65;;
73382;SDS011;61600;48.126;11.542;2022-09-13T05:48:42;3.13;;;1.52;;
73382;SDS011;61600;48.126;11.542;2022-09-13T05:51:08;3.05;;;1.40;;
73382;SDS011;61600;48.126;11.542;2022-09-13T05:53:35;3.05;;;1.20;;
73382;SDS011;61600;48.126;11.542;2022-09-13T05:56:14;3.28;;;1.33;;
73382;SDS011;61600;48.126;11.542;2022-09-13T05:58:41;1.90;;;1.10;;
73382;SDS011;61600;48.126;11.542;2022-09-13T06:01:07;4.43;;;1.17;;
73382;SDS011;61600;48.126;11.542;2022-09-13T06:03:33;2.53;;;1.30;;
73382;SDS011;61600;48.126;11.542;2022-09-13T06:05:59;1.70;;;1.10;;
73382;SDS011;61600;48.126;11.542;2022-09-13T06:08:26;3.30;;;1.20;;
73382;SDS011;61600;48.126;11.542;2022-09-13T06:11:01;5.88;;;1.30;;
73382;SDS011;61600;48.126;11.542;2022-09-13T06:13:30;2.10;;;1.17;;
73382;SDS011;61600;48.126;11.542;2022-09-13T06:15:57;3.30;;;1.00;;
73382;SDS011;61600;48.126;11.542;2022-09-13T06:18:23;2.58;;;1.20;;
73382;SDS011;61600;48.126;11.542;2022-09-13T06:20:48;2.70;;;1.30;;
73382;SDS011;61600;48.126;11.542;2022-09-13T06:23:14;2.92;;;1.23;;
73382;SDS011;61600;48.126;11.542;2022-09-13T06:25:40;2.80;;;1.35;;
73382;SDS011;61600;48.126;11.542;2022-09-13T06:28:06;4.25;;;1.85;;
73382;SDS011;61600;48.126;11.542;2022-09-13T06:30:32;2.60;;;1.50;;
73382;SDS011;61600;48.126;11.542;2022-09-13T06:32:58;2.15;;;1.10;;
73382;SDS011;61600;48.126;11.542;2022-09-13T06:35:23;2.30;;;1.20;;
73382;SDS011;61600;48.126;11.542;2022-09-13T06:37:49;2.25;;;1.20;;
73382;SDS011;61600;48.126;11.542;2022-09-13T06:40:15;1.98;;;1.08;;
73382;SDS011;61600;48.126;11.542;2022-09-13T06:42:42;1.83;;;1.10;;
73382;SDS011;61600;48.126;11.542;2022-09-13T06:45:08;5.10;;;1.30;;
73382;SDS011;61600;48.126;11.542;2022-09-13T06:47:34;3.60;;;1.08;;
73382;SDS011;61600;48.126;11.542;2022-09-13T06:50:00;10.05;;;1.58;;
73382;SDS011;61600;48.126;11.542;2022-09-13T06:52:26;2.08;;;1.10;;
73382;SDS011;61600;48.126;11.542;2022-09-13T06:54:52;2.28;;;1.42;;
73382;SDS011;61600;48.126;11.542;2022-09-13T06:57:18;1.75;;;1.13;;
73382;SDS011;61600;48.126;11.542;2022-09-13T06:59:44;2.22;;;1.20;;
73382;SDS011;61600;48.126;11.542;2022-09-13T07:02:09;2.65;;;1.33;;
73382;SDS011;61600;48.126;11.542;2022-09-13T07:04:36;3.75;;;1.30;;
73382;SDS011;61600;48.126;11.542;2022-09-13T07:07:01;2.85;;;1.00;;
73382;SDS011;61600;48.126;11.542;2022-09-13T07:09:27;3.17;;;1.10;;
73382;SDS011;61600;48.126;11.542;2022-09-13T07:11:53;2.90;;;1.40;;
73382;SDS011;61600;48.126;11.542;2022-09-13T07:14:22;2.85;;;1.30;;
73382;SDS011;61600;48.126;11.542;2022-09-13T07:16:47;2.60;;;1.08;;
73382;SDS011;61600;48.126;11.542;2022-09-13T07:19:15;2.08;;;1.20;;
73382;SDS011;61600;48.126;11.542;2022-09-13T07:21:40;2.17;;;0.95;;
73382;SDS011;61600;48.126;11.542;2022-09-13T07:24:06;1.52;;;0.95;;
73382;SDS011;61600;48.126;11.542;2022-09-13T07:26:32;1.92;;;1.20;;
73382;SDS011;61600;48.126;11.542;2022-09-13T07:28:59;2.78;;;1.27;;
73382;SDS011;61600;48.126;11.542;2022-09-13T07:31:25;2.63;;;1.10;;
73382;SDS011;61600;48.126;11.542;2022-09-13T07:36:17;2.22;;;1.25;;
73382;SDS011;61600;48.126;11.542;2022-09-13T07:38:42;3.00;;;1.10;;
73382;SDS011;61600;48.126;11.542;2022-09-13T07:41:13;3.30;;;1.13;;
73382;SDS011;61600;48.126;11.542;2022-09-13T07:43:39;2.22;;;1.30;;
73382;SDS011;61600;48.126;11.542;2022-09-13T07:46:05;1.58;;;0.95;;
73382;SDS011;61600;48.126;11.542;2022-09-13T07:48:32;4.57;;;1.25;;
73382;SDS011;61600;48.126;11.542;2022-09-13T07:51:08;2.22;;;0.95;;
73382;SDS011;61600;48.126;11.542;2022-09-13T07:53:34;3.15;;;1.05;;
73382;SDS011;61600;48.126;11.542;2022-09-13T07:56:05;1.55;;;0.90;;
73382;SDS011;61600;48.126;11.542;2022-09-13T07:58:31;2.03;;;0.98;;
73382;SDS011;61600;48.126;11.542;2022-09-13T08:01:03;4.22;;;1.05;;
73382;SDS011;61600;48.126;11.542;2022-09-13T08:03:29;2.63;;;1.20;;
73382;SDS011;61600;48.126;11.542;2022-09-13T08:05:54;1.48;;;1.00;;
73382;SDS011;61600;48.126;11.542;2022-09-13T08:08:20;3.42;;;1.02;;
73382;SDS011;61600;48.126;11.542;2022-09-13T08:10:46;3.03;;;1.00;;
73382;SDS011;61600;48.126;11.542;2022-09-13T08:13:11;2.08;;;1.05;;
73382;SDS011;61600;48.126;11.542;2022-09-13T08:15:37;2.53;;;0.95;;
73382;SDS011;61600;48.126;11.542;2022-09-13T08:18:04;3.15;;;1.08;;
73382;SDS011;61600;48.126;11.542;2022-09-13T08:20:29;1.80;;;1.10;;
73382;SDS011;61600;48.126;11.542;2022-09-13T08:22:55;3.55;;;1.40;;
73382;SDS011;61600;48.126;11.542;2022-09-13T08:25:21;1.85;;;0.95;;
73382;SDS011;61600;48.126;11.542;2022-09-13T08:27:46;3.35;;;1.10;;
73382;SDS011;61600;48.126;11.542;2022-09-13T08:30:12;1.88;;;0.90;;
73382;SDS011;61600;48.126;11.542;2022-09-13T08:32:38;2.75;;;1.13;;
73382;SDS011;61600;48.126;11.542;2022-09-13T08:35:03;2.80;;;0.90;;
73382;SDS011;61600;48.126;11.542;2022-09-13T08:37:30;3.15;;;1.20;;
73382;SDS011;61600;48.126;11.542;2022-09-13T08:44:53;3.08;;;1.00;;
73382;SDS011;61600;48.126;11.542;2022-09-13T08:47:55;2.97;;;1.05;;
73382;SDS011;61600;48.126;11.542;2022-09-13T08:55:30;2.58;;;1.00;;
73382;SDS011;61600;48.126;11.542;2022-09-13T08:57:52;1.90;;;0.80;;
73382;SDS011;61600;48.126;11.542;2022-09-13T09:00:20;1.63;;;0.85;;
73382;SDS011;61600;48.126;11.542;2022-09-13T09:03:00;1.13;;;0.80;;
73382;SDS011;61600;48.126;11.542;2022-09-13T09:05:30;1.90;;;0.95;;
73382;SDS011;61600;48.126;11.542;2022-09-13T09:08:00;2.60;;;1.20;;
73382;SDS011;61600;48.126;11.542;2022-09-13T09:10:35;3.10;;;1.00;;
73382;SDS011;61600;48.126;11.542;2022-09-13T09:13:03;3.42;;;0.90;;
73382;SDS011;61600;48.126;11.542;2022-09-13T09:15:32;4.50;;;1.10;;
73382;SDS011;61600;48.126;11.542;2022-09-13T09:18:02;5.22;;;2.28;;
73382;SDS011;61600;48.126;11.542;2022-09-13T09:20:30;2.97;;;1.17;;
73382;SDS011;61600;48.126;11.542;2022-09-13T09:23:00;3.28;;;1.17;;
73382;SDS011;61600;48.126;11.542;2022-09-13T09:25:26;5.07;;;1.60;;
73382;SDS011;61600;48.126;11.542;2022-09-13T09:27:53;2.28;;;1.20;;
73382;SDS011;61600;48.126;11.542;2022-09-13T09:30:19;1.98;;;1.00;;
73382;SDS011;61600;48.126;11.542;2022-09-13T09:35:16;4.38;;;1.20;;
73382;SDS011;61600;48.126;11.542;2022-09-13T09:37:45;2.90;;;0.90;;
73382;SDS011;61600;48.126;11.542;2022-09-13T09:40:14;2.05;;;1.05;;
73382;SDS011;61600;48.126;11.542;2022-09-13T09:42:42;3.42;;;1.20;;
73382;SDS011;61600;48.126;11.542;2022-09-13T09:45:27;5.80;;;1.15;;
73382;SDS011;61600;48.126;11.542;2022-09-13T09:47:54;4.50;;;0.90;;
73382;SDS011;61600;48.126;11.542;2022-09-13T09:50:31;2.78;;;0.93;;
73382;SDS011;61600;48.126;11.542;2022-09-13T09:53:09;2.15;;;0.98;;
73382;SDS011;61600;48.126;11.542;2022-09-13T09:55:41;3.15;;;1.10;;
73382;SDS011;61600;48.126;11.542;2022-09-13T09:58:10;2.15;;;0.90;;
73382;SDS011;61600;48.126;11.542;2022-09-13T10:00:51;2.40;;;0.88;;
73382;SDS011;61600;48.126;11.542;2022-09-13T10:03:18;1.35;;;0.93;;
73382;SDS011;61600;48.126;11.542;2022-09-13T10:05:44;1.83;;;1.00;;
73382;SDS011;61600;48.126;11.542;2022-09-13T10:08:22;3.75;;;0.98;;
73382;SDS011;61600;48.126;11.542;2022-09-13T10:10:53;1.52;;;0.80;;
73382;SDS011;61600;48.126;11.542;2022-09-13T10:13:20;1.48;;;0.90;;
73382;SDS011;61600;48.126;11.542;2022-09-13T10:18:19;4.75;;;1.88;;
73382;SDS011;61600;48.126;11.542;2022-09-13T10:21:01;2.40;;;1.00;;
73382;SDS011;61600;48.126;11.542;2022-09-13T10:23:27;5.78;;;1.42;;
73382;SDS011;61600;48.126;11.542;2022-09-13T10:25:58;2.45;;;1.25;;
73382;SDS011;61600;48.126;11.542;2022-09-13T10:28:25;4.70;;;1.73;;
73382;SDS011;61600;48.126;11.542;2022-09-13T10:30:52;6.55;;;3.53;;
73382;SDS011;61600;48.126;11.542;2022-09-13T10:33:40;4.57;;;2.15;;
73382;SDS011;61600;48.126;11.542;2022-09-13T10:36:12;5.95;;;1.17;;
73382;SDS011;61600;48.126;11.542;2022-09-13T10:38:39;4.80;;;1.23;;
73382;SDS011;61600;48.126;11.542;2022-09-13T10:41:07;1.42;;;0.90;;
73382;SDS011;61600;48.126;11.542;2022-09-13T10:43:33;0.75;;;0.75;;
73382;SDS011;61600;48.126;11.542;2022-09-13T10:45:59;3.17;;;0.80;;
73382;SDS011;61600;48.126;11.542;2022-09-13T10:48:27;0.68;;;0.60;;
73382;SDS011;61600;48.126;11.542;2022-09-13T10:51:07;3.13;;;0.90;;
73382;SDS011;61600;48.126;11.542;2022-09-13T10:59:24;2.33;;;1.00;;
73382;SDS011;61600;48.126;11.542;2022-09-13T11:22:41;2.38;;;0.80;;
73382;SDS011;61600;48.126;11.542;2022-09-13T11:30:50;2.67;;;1.00;;
73382;SDS011;61600;48.126;11.542;2022-09-13T11:38:35;2.28;;;0.80;;
73382;SDS011;61600;48.126;11.542;2022-09-13T11:47:20;1.77;;;0.90;;
73382;SDS011;61600;48.126;11.542;2022-09-13T11:56:54;2.10;;;1.10;;
73382;SDS011;61600;48.126;11.542;2022-09-13T12:01:57;4.05;;;1.00;;
73382;SDS011;61600;48.126;11.542;2022-09-13T12:04:38;4.75;;;1.00;;
73382;SDS011;61600;48.126;11.542;2022-09-13T12:07:13;3.30;;;0.90;;
73382;SDS011;61600;48.126;11.542;2022-09-13T12:09:50;3.20;;;0.80;;
73382;SDS011;61600;48.126;11.542;2022-09-13T12:12:17;2.45;;;0.80;;
73382;SDS011;61600;48.126;11.542;2022-09-13T12:14:51;2.88;;;0.80;;
73382;SDS011;61600;48.126;11.542;2022-09-13T12:17:23;1.58;;;1.00;;
73382;SDS011;61600;48.126;11.542;2022-09-13T12:19:50;9.45;;;1.20;;
73382;SDS011;61600;48.126;11.542;2022-09-13T12:22:19;1.38;;;0.73;;
73382;SDS011;61600;48.126;11.542;2022-09-13T12:24:55;1.52;;;0.80;;
73382;SDS011;61600;48.126;11.542;2022-09-13T12:27:38;7.05;;;0.80;;
73382;SDS011;61600;48.126;11.542;2022-09-13T12:32:30;3.80;;;0.90;;
73382;SDS011;61600;48.126;11.542;2022-09-13T12:35:03;3.17;;;0.80;;
73382;SDS011;61600;48.126;11.542;2022-09-13T12:40:03;4.38;;;0.93;;
73382;SDS011;61600;48.126;11.542;2022-09-13T12:42:43;1.77;;;0.82;;
73382;SDS011;61600;48.126;11.542;2022-09-13T13:00:40;2.53;;;0.80;;
73382;SDS011;61600;48.126;11.542;2022-09-13T13:05:45;3.10;;;0.95;;
73382;SDS011;61600;48.126;11.542;2022-09-13T13:10:44;2.28;;;0.90;;
73382;SDS011;61600;48.126;11.542;2022-09-13T13:23:29;2.03;;;0.73;;
73382;SDS011;61600;48.126;11.542;2022-09-13T13:33:46;3.38;;;0.90;;
73382;SDS011;61600;48.126;11.542;2022-09-13T13:36:31;1.00;;;0.57;;
73382;SDS011;61600;48.126;11.542;2022-09-13T13:39:08;1.60;;;0.82;;
73382;SDS011;61600;48.126;11.542;2022-09-13T13:57:00;0.63;;;0.63;;
73382;SDS011;61600;48.126;11.542;2022-09-13T14:01:53;0.70;;;0.50;;
73382;SDS011;61600;48.126;11.542;2022-09-13T14:04:44;1.40;;;0.80;;
73382;SDS011;61600;48.126;11.542;2022-09-13T14:07:20;1.35;;;0.55;;
73382;SDS011;61600;48.126;11.542;2022-09-13T14:09:51;3.85;;;1.00;;
73382;SDS011;61600;48.126;11.542;2022-09-13T14:12:27;2.63;;;0.77;;
73382;SDS011;61600;48.126;11.542;2022-09-13T14:15:15;4.68;;;0.88;;
73382;SDS011;61600;48.126;11.542;2022-09-13T14:22:35;2.53;;;0.80;;
73382;SDS011;61600;48.126;11.542;2022-09-13T14:27:38;1.30;;;0.63;;
73382;SDS011;61600;48.126;11.542;2022-09-13T14:30:15;3.42;;;0.90;;
73382;SDS011;61600;48.126;11.542;2022-09-13T14:32:42;3.10;;;1.00;;
73382;SDS011;61600;48.126;11.542;2022-09-13T14:37:53;5.40;;;0.90;;
73382;SDS011;61600;48.126;11.542;2022-09-13T14:40:20;2.65;;;0.93;;
73382;SDS011;61600;48.126;11.542;2022-09-13T14:42:47;4.07;;;0.90;;
73382;SDS011;61600;48.126;11.542;2022-09-13T14:45:14;1.92;;;0.77;;
73382;SDS011;61600;48.126;11.542;2022-09-13T14:47:51;2.05;;;0.90;;
73382;SDS011;61600;48.126;11.542;2022-09-13T14:50:18;4.07;;;2.22;;
73382;SDS011;61600;48.126;11.542;2022-09-13T14:52:49;7.95;;;5.47;;
73382;SDS011;61600;48.126;11.542;2022-09-13T14:55:17;2.53;;;1.10;;
73382;SDS011;61600;48.126;11.542;2022-09-13T14:57:49;2.22;;;0.88;;
73382;SDS011;61600;48.126;11.542;2022-09-13T15:00:17;3.85;;;1.15;;
73382;SDS011;61600;48.126;11.542;2022-09-13T15:02:53;2.63;;;0.90;;
73382;SDS011;61600;48.126;11.542;2022-09-13T15:05:21;3.78;;;1.80;;
73382;SDS011;61600;48.126;11.542;2022-09-13T15:07:47;3.28;;;0.90;;
73382;SDS011;61600;48.126;11.542;2022-09-13T15:12:55;4.18;;;1.00;;
73382;SDS011;61600;48.126;11.542;2022-09-13T15:20:19;3.80;;;2.22;;
73382;SDS011;61600;48.126;11.542;2022-09-13T15:22:48;5.68;;;2.03;;
73382;SDS011;61600;48.126;11.542;2022-09-13T15:25:27;2.80;;;0.98;;
73382;SDS011;61600;48.126;11.542;2022-09-13T15:27:56;2.10;;;1.30;;
73382;SDS011;61600;48.126;11.542;2022-09-13T15:30:29;1.60;;;0.90;;
73382;SDS011;61600;48.126;11.542;2022-09-13T15:35:34;3.08;;;1.00;;
73382;SDS011;61600;48.126;11.542;2022-09-13T15:38:00;4.57;;;1.20;;
73382;SDS011;61600;48.126;11.542;2022-09-13T15:40:28;1.20;;;0.80;;
73382;SDS011;61600;48.126;11.542;2022-09-13T15:42:53;3.03;;;0.77;;
73382;SDS011;61600;48.126;11.542;2022-09-13T15:45:19;1.65;;;0.90;;
73382;SDS011;61600;48.126;11.542;2022-09-13T15:47:49;3.08;;;1.02;;
73382;SDS011;61600;48.126;11.542;2022-09-13T15:50:25;4.53;;;1.20;;
73382;SDS011;61600;48.126;11.542;2022-09-13T15:52:52;5.28;;;0.98;;
73382;SDS011;61600;48.126;11.542;2022-09-13T15:55:17;3.90;;;1.00;;
73382;SDS011;61600;48.126;11.542;2022-09-13T15:57:43;4.45;;;1.52;;
73382;SDS011;61600;48.126;11.542;2022-09-13T16:00:14;2.72;;;1.50;;
73382;SDS011;61600;48.126;11.542;2022-09-13T16:02:40;4.80;;;1.58;;
73382;SDS011;61600;48.126;11.542;2022-09-13T16:05:05;2.80;;;1.17;;
73382;SDS011;61600;48.126;11.542;2022-09-13T16:07:33;1.75;;;0.93;;
73382;SDS011;61600;48.126;11.542;2022-09-13T16:09:58;2.75;;;0.98;;
73382;SDS011;61600;48.126;11.542;2022-09-13T16:12:25;6.50;;;1.40;;
73382;SDS011;61600;48.126;11.542;2022-09-13T16:17:23;1.55;;;0.88;;
73382;SDS011;61600;48.126;11.542;2022-09-13T16:19:48;4.10;;;1.85;;
73382;SDS011;61600;48.126;11.542;2022-09-13T16:22:14;4.10;;;1.50;;
73382;SDS011;61600;48.126;11.542;2022-09-13T16:24:40;4.65;;;2.05;;
73382;SDS011;61600;48.126;11.542;2022-09-13T16:27:05;5.20;;;2.83;;
73382;SDS011;61600;48.126;11.542;2022-09-13T16:29:31;5.88;;;3.70;;
73382;SDS011;61600;48.126;11.542;2022-09-13T16:31:57;5.03;;;1.95;;
73382;SDS011;61600;48.126;11.542;2022-09-13T16:34:24;4.07;;;1.45;;
73382;SDS011;61600;48.126;11.542;2022-09-13T16:39:15;3.35;;;1.10;;
73382;SDS011;61600;48.126;11.542;2022-09-13T16:41:41;3.28;;;1.35;;
73382;SDS011;61600;48.126;11.542;2022-09-13T16:44:06;3.63;;;1.50;;
73382;SDS011;61600;48.126;11.542;2022-09-13T16:46:33;3.67;;;1.42;;
73382;SDS011;61600;48.126;11.542;2022-09-13T16:48:59;3.40;;;1.50;;
73382;SDS011;61600;48.126;11.542;2022-09-13T16:51:24;3.30;;;1.30;;
73382;SDS011;61600;48.126;11.542;2022-09-13T16:53:50;4.85;;;1.30;;
73382;SDS011;61600;48.126;11.542;2022-09-13T16:56:17;4.38;;;1.60;;
73382;SDS011;61600;48.126;11.542;2022-09-13T16:58:44;3.25;;;1.40;;
73382;SDS011;61600;48.126;11.542;2022-09-13T17:01:13;5.43;;;1.75;;
73382;SDS011;61600;48.126;11.542;2022-09-13T17:03:39;3.20;;;1.77;;
73382;SDS011;61600;48.126;11.542;2022-09-13T17:06:06;4.93;;;1.52;;
73382;SDS011;61600;48.126;11.542;2022-09-13T17:08:32;2.60;;;1.42;;
73382;SDS011;61600;48.126;11.542;2022-09-13T17:11:00;4.13;;;1.52;;
73382;SDS011;61600;48.126;11.542;2022-09-13T17:13:31;4.30;;;1.55;;
73382;SDS011;61600;48.126;11.542;2022-09-13T17:15:57;4.00;;;1.63;;
73382;SDS011;61600;48.126;11.542;2022-09-13T17:18:22;5.38;;;1.55;;
73382;SDS011;61600;48.126;11.542;2022-09-13T17:20:48;5.00;;;1.80;;
73382;SDS011;61600;48.126;11.542;2022-09-13T17:23:16;4.00;;;2.00;;
73382;SDS011;61600;48.126;11.542;2022-09-13T17:25:45;3.85;;;2.05;;
73382;SDS011;61600;48.126;11.542;2022-09-13T17:28:18;3.80;;;1.60;;
73382;SDS011;61600;48.126;11.542;2022-09-13T17:30:50;8.23;;;1.50;;
73382;SDS011;61600;48.126;11.542;2022-09-13T17:33:19;5.38;;;2.25;;
73382;SDS011;61600;48.126;11.542;2022-09-13T17:36:05;3.05;;;1.83;;
73382;SDS011;61600;48.126;11.542;2022-09-13T17:38:40;4.63;;;2.00;;
73382;SDS011;61600;48.126;11.542;2022-09-13T17:41:14;3.75;;;2.00;;
73382;SDS011;61600;48.126;11.542;2022-09-13T17:43:41;5.72;;;2.17;;
73382;SDS011;61600;48.126;11.542;2022-09-13T17:46:17;9.52;;;3.60;;
73382;SDS011;61600;48.126;11.542;2022-09-13T17:48:48;12.70;;;3.60;;
73382;SDS011;61600;48.126;11.542;2022-09-13T17:51:17;11.75;;;4.20;;
73382;SDS011;61600;48.126;11.542;2022-09-13T17:53:55;6.32;;;2.75;;
73382;SDS011;61600;48.126;11.542;2022-09-13T17:56:25;10.60;;;3.08;;
73382;SDS011;61600;48.126;11.542;2022-09-13T17:59:13;9.43;;;4.00;;
73382;SDS011;61600;48.126;11.542;2022-09-13T18:01:40;11.10;;;4.30;;
73382;SDS011;61600;48.126;11.542;2022-09-13T18:04:08;6.70;;;3.30;;
73382;SDS011;61600;48.126;11.542;2022-09-13T18:06:35;5.22;;;3.00;;
73382;SDS011;61600;48.126;11.542;2022-09-13T18:09:19;7.05;;;2.80;;
73382;SDS011;61600;48.126;11.542;2022-09-13T18:11:44;6.03;;;2.63;;
73382;SDS011;61600;48.126;11.542;2022-09-13T18:14:12;8.52;;;4.25;;
73382;SDS011;61600;48.126;11.542;2022-09-13T18:16:38;5.43;;;2.75;;
73382;SDS011;61600;48.126;11.542;2022-09-13T18:19:03;4.88;;;2.30;;